createdAt,value
2022-12-03T00:02:16.105Z,21.57
2022-12-03T00:04:42.798Z,22.17
2022-12-03T00:07:09.394Z,21.70
2022-12-03T00:09:35.947Z,21.00
2022-12-03T00:12:02.608Z,22.00
2022-12-03T00:14:29.269Z,22.03
2022-12-03T00:16:55.831Z,21.47
2022-12-03T00:19:22.342Z,21.43
2022-12-03T00:21:48.860Z,21.50
2022-12-03T00:24:15.439Z,20.93
2022-12-03T00:26:41.990Z,23.57
2022-12-03T00:29:08.494Z,24.23
2022-12-03T00:31:35.221Z,21.77
2022-12-03T00:34:01.852Z,23.87
2022-12-03T00:36:28.360Z,23.07
2022-12-03T00:38:54.927Z,20.20
2022-12-03T00:41:21.563Z,23.23
2022-12-03T00:43:48.103Z,22.43
2022-12-03T00:46:19.656Z,21.33
2022-12-03T00:48:47.781Z,20.77
2022-12-03T00:51:14.330Z,20.83
2022-12-03T00:53:40.931Z,21.17
2022-12-03T00:56:07.616Z,22.03
2022-12-03T00:58:34.253Z,21.23
2022-12-03T01:01:00.791Z,21.53
2022-12-03T01:03:27.739Z,20.53
2022-12-03T01:05:54.776Z,21.60
2022-12-03T01:08:21.304Z,21.00
2022-12-03T01:10:47.769Z,20.30
2022-12-03T01:13:14.293Z,20.37
2022-12-03T01:15:40.843Z,21.17
2022-12-03T01:18:07.495Z,20.77
2022-12-03T01:20:36.242Z,21.43
2022-12-03T01:23:02.789Z,21.70
2022-12-03T01:25:29.376Z,21.93
2022-12-03T01:27:55.955Z,25.02
2022-12-03T01:30:22.559Z,22.70
2022-12-03T01:32:49.067Z,23.00
2022-12-03T01:35:15.543Z,24.83
2022-12-03T01:37:42.057Z,23.97
2022-12-03T01:40:09.236Z,22.80
2022-12-03T01:42:37.147Z,20.77
2022-12-03T01:45:04.157Z,20.83
2022-12-03T01:47:31.592Z,20.83
2022-12-03T01:50:07.486Z,20.30
2022-12-03T01:52:36.094Z,19.27
2022-12-03T01:55:05.041Z,18.77
2022-12-03T01:57:37.722Z,19.40
2022-12-03T02:00:04.451Z,20.53
2022-12-03T02:02:32.067Z,20.13
2022-12-03T02:04:59.690Z,19.83
2022-12-03T02:07:33.710Z,19.23
2022-12-03T02:10:01.377Z,19.37
2022-12-03T02:12:35.262Z,19.70
2022-12-03T02:15:02.099Z,19.97
2022-12-03T02:17:28.787Z,19.47
2022-12-03T02:19:56.020Z,20.03
2022-12-03T02:22:30.241Z,19.73
2022-12-03T02:25:15.483Z,19.63
2022-12-03T02:27:42.230Z,21.53
2022-12-03T02:30:09.236Z,21.70
2022-12-03T02:32:35.852Z,21.97
2022-12-03T02:35:02.383Z,20.40
2022-12-03T02:37:38.070Z,20.80
2022-12-03T02:40:09.615Z,21.30
2022-12-03T02:42:36.438Z,21.83
2022-12-03T02:45:20.830Z,21.23
2022-12-03T02:47:49.236Z,22.47
2022-12-03T02:50:19.657Z,21.53
2022-12-03T02:52:46.947Z,22.83
2022-12-03T02:55:14.768Z,21.00
2022-12-03T02:57:41.530Z,24.03
2022-12-03T03:00:09.701Z,21.73
2022-12-03T03:02:37.359Z,22.23
2022-12-03T03:05:05.822Z,24.80
2022-12-03T03:07:32.543Z,23.13
2022-12-03T03:09:59.883Z,22.73
2022-12-03T03:12:26.399Z,22.67
2022-12-03T03:14:53.177Z,23.60
2022-12-03T03:17:19.919Z,22.63
2022-12-03T03:19:46.745Z,23.90
2022-12-03T03:22:13.289Z,23.17
2022-12-03T03:24:39.820Z,24.60
2022-12-03T03:27:06.473Z,24.40
2022-12-03T03:29:33.478Z,25.40
2022-12-03T03:32:00.854Z,25.70
2022-12-03T03:34:27.678Z,25.90
2022-12-03T03:36:54.321Z,26.17
2022-12-03T03:39:20.847Z,26.40
2022-12-03T03:41:47.443Z,27.53
2022-12-03T03:44:13.991Z,26.70
2022-12-03T03:46:41.288Z,28.37
2022-12-03T03:49:07.897Z,28.27
2022-12-03T03:51:35.437Z,27.93
2022-12-03T03:54:02.712Z,28.03
2022-12-03T03:56:29.346Z,28.83
2022-12-03T03:58:56.208Z,28.43
2022-12-03T04:01:23.345Z,27.33
2022-12-03T04:03:50.025Z,29.00
2022-12-03T04:06:16.584Z,26.13
2022-12-03T04:08:43.961Z,26.70
2022-12-03T04:11:28.893Z,25.53
2022-12-03T04:13:55.396Z,26.33
2022-12-03T04:16:22.029Z,26.07
2022-12-03T04:18:48.604Z,26.67
2022-12-03T04:21:35.100Z,26.33
2022-12-03T04:24:01.707Z,24.83
2022-12-03T04:26:46.951Z,22.53
2022-12-03T04:29:17.392Z,23.53
2022-12-03T04:32:06.972Z,22.77
2022-12-03T04:34:52.548Z,21.93
2022-12-03T04:37:19.426Z,20.93
2022-12-03T04:39:45.992Z,23.07
2022-12-03T04:42:12.486Z,21.23
2022-12-03T04:44:39.085Z,20.60
2022-12-03T04:47:07.470Z,21.67
2022-12-03T04:49:34.537Z,21.33
2022-12-03T04:52:01.006Z,20.63
2022-12-03T04:54:28.430Z,20.70
2022-12-03T04:56:54.951Z,20.57
2022-12-03T04:59:21.527Z,20.03
2022-12-03T05:01:48.213Z,21.43
2022-12-03T05:04:15.140Z,20.17
2022-12-03T05:06:42.143Z,19.87
2022-12-03T05:09:08.633Z,20.83
2022-12-03T05:11:35.179Z,20.67
2022-12-03T05:14:01.716Z,21.23
2022-12-03T05:16:28.660Z,20.43
2022-12-03T05:18:55.259Z,21.97
2022-12-03T05:21:21.769Z,20.07
2022-12-03T05:23:48.237Z,20.10
2022-12-03T05:26:15.096Z,20.90
2022-12-03T05:28:41.547Z,21.13
2022-12-03T05:31:08.334Z,21.00
2022-12-03T05:33:38.350Z,20.50
2022-12-03T05:36:09.217Z,21.90
2022-12-03T05:38:35.732Z,21.60
2022-12-03T05:41:02.255Z,21.23
2022-12-03T05:43:28.769Z,20.93
2022-12-03T05:45:55.310Z,21.60
2022-12-03T05:48:21.858Z,21.70
2022-12-03T05:50:48.363Z,21.47
2022-12-03T05:53:15.771Z,21.17
2022-12-03T05:55:42.467Z,20.33
2022-12-03T05:58:09.254Z,21.00
2022-12-03T06:00:42.455Z,20.87
2022-12-03T06:03:10.137Z,21.97
2022-12-03T06:05:36.831Z,21.33
2022-12-03T06:08:03.421Z,20.60
2022-12-03T06:10:30.272Z,20.90
2022-12-03T06:12:56.987Z,21.37
2022-12-03T06:15:23.869Z,21.63
2022-12-03T06:17:50.452Z,22.10
2022-12-03T06:20:18.237Z,22.70
2022-12-03T06:22:45.231Z,21.13
2022-12-03T06:25:11.748Z,27.65
2022-12-03T06:27:38.275Z,22.63
2022-12-03T06:30:05.781Z,22.10
2022-12-03T06:32:32.342Z,21.40
2022-12-03T06:34:58.879Z,21.17
2022-12-03T06:37:25.420Z,22.10
2022-12-03T06:39:52.038Z,20.97
2022-12-03T06:42:18.653Z,23.43
2022-12-03T06:44:45.167Z,24.43
2022-12-03T06:47:11.641Z,23.80
2022-12-03T06:49:38.292Z,25.03
2022-12-03T06:52:05.545Z,24.80
2022-12-03T06:54:32.063Z,22.00
2022-12-03T06:56:58.710Z,21.47
2022-12-03T06:59:25.256Z,21.73
2022-12-03T07:01:51.965Z,20.97
2022-12-03T07:04:18.530Z,21.37
2022-12-03T07:06:45.131Z,21.03
2022-12-03T07:09:11.655Z,20.03
2022-12-03T07:11:40.460Z,21.93
2022-12-03T07:14:07.898Z,23.70
2022-12-03T07:16:35.002Z,22.90
2022-12-03T07:19:01.711Z,23.07
2022-12-03T07:21:28.250Z,20.43
2022-12-03T07:23:54.751Z,20.87
2022-12-03T07:26:21.339Z,20.73
2022-12-03T07:28:48.348Z,20.47
2022-12-03T07:31:15.435Z,21.07
2022-12-03T07:33:42.390Z,19.93
2022-12-03T07:36:09.309Z,20.23
2022-12-03T07:38:35.850Z,20.47
2022-12-03T07:41:02.670Z,21.13
2022-12-03T07:43:29.155Z,21.40
2022-12-03T07:45:55.694Z,20.40
2022-12-03T07:48:22.221Z,20.70
2022-12-03T07:50:48.757Z,20.63
2022-12-03T07:53:15.232Z,24.07
2022-12-03T07:55:41.774Z,20.40
2022-12-03T07:58:09.124Z,24.10
2022-12-03T08:00:35.633Z,21.03
2022-12-03T08:03:02.249Z,21.60
2022-12-03T08:05:29.859Z,21.80
2022-12-03T08:07:56.680Z,20.73
2022-12-03T08:10:24.881Z,20.90
2022-12-03T08:12:51.490Z,20.43
2022-12-03T08:15:24.049Z,19.40
2022-12-03T08:17:54.937Z,19.43
2022-12-03T08:20:23.534Z,20.37
2022-12-03T08:22:51.360Z,30.80
2022-12-03T08:25:28.228Z,34.03
2022-12-03T08:28:24.159Z,71.07
2022-12-03T08:30:58.943Z,99.97
2022-12-03T08:33:35.734Z,75.43
2022-12-03T08:36:12.613Z,41.53
2022-12-03T08:38:40.835Z,27.60
2022-12-03T08:41:12.942Z,27.33
2022-12-03T08:43:42.751Z,22.30
2022-12-03T08:46:17.688Z,20.67
2022-12-03T08:48:48.716Z,20.17
2022-12-03T08:51:20.816Z,20.13
2022-12-03T08:53:55.367Z,21.50
2022-12-03T08:56:29.195Z,23.17
2022-12-03T08:59:00.327Z,21.50
2022-12-03T09:01:42.093Z,20.80
2022-12-03T09:04:17.476Z,20.83
2022-12-03T09:06:44.146Z,20.97
2022-12-03T09:09:10.671Z,20.80
2022-12-03T09:11:37.505Z,22.80
2022-12-03T09:14:04.286Z,21.37
2022-12-03T09:16:31.030Z,19.83
2022-12-03T09:18:57.893Z,19.73
2022-12-03T09:21:24.391Z,19.83
2022-12-03T09:23:50.901Z,21.10
2022-12-03T09:26:17.441Z,17.70
2022-12-03T09:28:43.960Z,19.23
2022-12-03T09:31:10.487Z,19.23
2022-12-03T09:33:36.979Z,19.47
2022-12-03T09:36:03.594Z,19.40
2022-12-03T09:38:30.195Z,21.43
2022-12-03T09:40:56.987Z,22.43
2022-12-03T09:43:24.633Z,19.20
2022-12-03T09:45:56.336Z,19.40
2022-12-03T09:48:23.077Z,18.90
2022-12-03T09:50:49.845Z,19.30
2022-12-03T09:53:18.623Z,16.97
2022-12-03T09:55:45.997Z,18.70
2022-12-03T09:58:13.410Z,19.57
2022-12-03T10:00:40.768Z,17.73
2022-12-03T10:03:08.080Z,17.70
2022-12-03T10:05:34.971Z,20.50
2022-12-03T10:08:06.731Z,19.17
2022-12-03T10:10:33.788Z,22.37
2022-12-03T10:13:00.473Z,23.00
2022-12-03T10:15:27.127Z,20.90
2022-12-03T10:17:54.667Z,20.50
2022-12-03T10:20:22.034Z,19.47
2022-12-03T10:22:48.909Z,18.40
2022-12-03T10:25:19.929Z,19.17
2022-12-03T10:27:59.918Z,18.53
2022-12-03T10:30:28.554Z,17.80
2022-12-03T10:32:56.996Z,19.37
2022-12-03T10:35:24.840Z,19.10
2022-12-03T10:37:57.091Z,19.13
2022-12-03T10:40:24.624Z,19.43
2022-12-03T10:42:52.985Z,20.67
2022-12-03T10:45:21.083Z,19.90
2022-12-03T10:48:04.755Z,19.77
2022-12-03T10:50:31.631Z,23.00
2022-12-03T10:52:58.321Z,20.30
2022-12-03T10:55:25.108Z,20.30
2022-12-03T10:57:51.868Z,20.97
2022-12-03T11:00:19.325Z,20.63
2022-12-03T11:02:53.031Z,20.67
2022-12-03T11:05:26.707Z,21.30
2022-12-03T11:07:53.409Z,20.80
2022-12-03T11:10:20.284Z,22.77
2022-12-03T11:13:18.722Z,21.57
2022-12-03T11:15:45.389Z,24.07
2022-12-03T11:18:31.893Z,21.17
2022-12-03T11:21:03.146Z,20.60
2022-12-03T11:23:49.627Z,21.20
2022-12-03T11:26:19.533Z,21.10
2022-12-03T11:28:46.495Z,22.60
2022-12-03T11:31:31.758Z,24.03
2022-12-03T11:34:21.084Z,21.60
2022-12-03T11:37:06.174Z,22.67
2022-12-03T11:39:44.556Z,21.83
2022-12-03T11:42:31.318Z,21.17
2022-12-03T11:45:03.780Z,21.30
2022-12-03T11:47:31.207Z,21.60
2022-12-03T11:49:58.048Z,22.80
2022-12-03T11:52:27.397Z,21.77
2022-12-03T11:54:57.525Z,22.40
2022-12-03T11:57:35.946Z,22.67
2022-12-03T12:00:07.715Z,22.90
2022-12-03T12:02:41.464Z,21.90
2022-12-03T12:05:23.031Z,23.37
2022-12-03T12:07:50.108Z,22.17
2022-12-03T12:10:35.525Z,22.60
2022-12-03T12:13:02.101Z,21.50
2022-12-03T12:15:43.329Z,21.50
2022-12-03T12:18:28.537Z,21.43
2022-12-03T12:20:55.039Z,21.87
2022-12-03T12:23:25.443Z,23.33
2022-12-03T12:25:54.342Z,22.37
2022-12-03T12:28:21.148Z,21.60
2022-12-03T12:30:47.663Z,24.60
2022-12-03T12:33:19.663Z,23.33
2022-12-03T12:35:46.259Z,22.00
2022-12-03T12:38:14.863Z,22.97
2022-12-03T12:40:42.567Z,23.00
2022-12-03T12:43:20.473Z,22.83
2022-12-03T12:45:51.383Z,23.27
2022-12-03T12:48:18.262Z,23.13
2022-12-03T12:50:45.920Z,23.67
2022-12-03T12:53:16.723Z,23.37
2022-12-03T12:55:43.268Z,24.03
2022-12-03T12:58:16.716Z,23.80
2022-12-03T13:00:45.539Z,22.30
2022-12-03T13:03:12.768Z,22.70
2022-12-03T13:05:40.734Z,24.87
2022-12-03T13:08:27.403Z,24.83
2022-12-03T13:10:58.186Z,23.90
2022-12-03T13:13:26.244Z,24.27
2022-12-03T13:15:52.797Z,24.20
2022-12-03T13:18:32.483Z,24.33
2022-12-03T13:20:59.358Z,24.30
2022-12-03T13:23:30.265Z,25.13
2022-12-03T13:26:01.992Z,23.10
2022-12-03T13:28:36.151Z,25.17
2022-12-03T13:31:15.565Z,29.67
2022-12-03T13:33:42.505Z,25.67
2022-12-03T13:36:12.184Z,24.07
2022-12-03T13:38:38.706Z,26.23
2022-12-03T13:41:05.328Z,25.63
2022-12-03T13:43:32.717Z,25.20
2022-12-03T13:45:59.872Z,25.00
2022-12-03T13:48:29.501Z,26.13
2022-12-03T13:50:56.324Z,26.70
2022-12-03T13:53:28.043Z,25.67
2022-12-03T13:56:11.899Z,27.27
2022-12-03T13:58:38.407Z,32.80
2022-12-03T14:01:04.960Z,26.80
2022-12-03T14:03:31.572Z,26.63
2022-12-03T14:05:58.099Z,26.87
2022-12-03T14:08:24.631Z,27.97
2022-12-03T14:10:55.559Z,27.40
2022-12-03T14:13:25.312Z,26.13
2022-12-03T14:15:51.891Z,27.63
2022-12-03T14:18:18.445Z,26.70
2022-12-03T14:20:44.951Z,34.10
2022-12-03T14:23:11.523Z,31.43
2022-12-03T14:25:38.047Z,31.10
2022-12-03T14:28:08.627Z,30.07
2022-12-03T14:30:35.848Z,29.43
2022-12-03T14:33:02.696Z,30.00
2022-12-03T14:35:29.411Z,28.07
2022-12-03T14:37:55.898Z,28.40
2022-12-03T14:40:22.621Z,30.07
2022-12-03T14:42:49.164Z,28.30
2022-12-03T14:45:15.738Z,26.93
2022-12-03T14:47:42.561Z,29.00
2022-12-03T14:50:14.012Z,28.27
2022-12-03T14:52:40.770Z,29.43
2022-12-03T14:55:07.401Z,31.33
2022-12-03T14:57:38.621Z,31.40
2022-12-03T15:00:06.637Z,30.87
2022-12-03T15:02:33.296Z,46.00
2022-12-03T15:04:59.819Z,36.10
2022-12-03T15:07:26.358Z,47.47
2022-12-03T15:09:53.071Z,54.90
2022-12-03T15:12:19.878Z,51.83
2022-12-03T15:14:47.454Z,44.93
2022-12-03T15:17:14.027Z,39.10
2022-12-03T15:19:40.692Z,41.47
2022-12-03T15:22:07.265Z,44.67
2022-12-03T15:24:33.881Z,32.47
2022-12-03T15:27:00.430Z,42.83
2022-12-03T15:29:26.973Z,34.73
2022-12-03T15:31:53.558Z,35.30
2022-12-03T15:34:22.928Z,31.80
2022-12-03T15:36:49.944Z,35.00
2022-12-03T15:39:16.423Z,35.60
2022-12-03T15:41:42.983Z,34.30
2022-12-03T15:44:09.693Z,35.57
2022-12-03T15:46:36.260Z,41.57
2022-12-03T15:49:02.976Z,41.10
2022-12-03T15:51:29.592Z,35.80
2022-12-03T15:53:56.064Z,32.17
2022-12-03T15:56:22.587Z,32.87
2022-12-03T15:58:49.155Z,35.17
2022-12-03T16:01:18.136Z,37.87
2022-12-03T16:03:45.079Z,43.37
2022-12-03T16:06:12.615Z,39.80
2022-12-03T16:08:39.221Z,37.23
2022-12-03T16:11:05.920Z,37.23
2022-12-03T16:13:32.430Z,36.47
2022-12-03T16:15:59.022Z,33.87
2022-12-03T16:18:25.598Z,33.00
2022-12-03T16:21:07.295Z,36.00
2022-12-03T16:23:33.986Z,32.60
2022-12-03T16:26:00.489Z,39.23
2022-12-03T16:28:27.025Z,40.37
2022-12-03T16:30:53.609Z,42.50
2022-12-03T16:33:25.703Z,33.07
2022-12-03T16:35:53.933Z,37.90
2022-12-03T16:38:20.401Z,32.90
2022-12-03T16:40:46.900Z,33.80
2022-12-03T16:43:13.433Z,33.73
2022-12-03T16:45:42.898Z,34.23
2022-12-03T16:48:09.406Z,35.37
2022-12-03T16:50:37.582Z,35.00
2022-12-03T16:53:04.255Z,32.53
2022-12-03T16:55:30.833Z,37.50
2022-12-03T16:57:57.385Z,34.63
2022-12-03T17:00:25.839Z,35.10
2022-12-03T17:02:52.424Z,34.40
2022-12-03T17:05:19.028Z,36.40
2022-12-03T17:07:45.636Z,44.80
2022-12-03T17:10:12.339Z,36.60
2022-12-03T17:13:07.770Z,40.23
2022-12-03T17:15:25.356Z,40.67
2022-12-03T17:17:52.922Z,47.70
2022-12-03T17:20:19.971Z,39.83
2022-12-03T17:22:46.477Z,39.13
2022-12-03T17:25:13.059Z,38.77
2022-12-03T17:27:45.073Z,35.93
2022-12-03T17:30:12.752Z,32.90
2022-12-03T17:32:39.697Z,33.17
2022-12-03T17:35:06.447Z,33.90
2022-12-03T17:37:32.921Z,39.93
2022-12-03T17:39:59.520Z,43.10
2022-12-03T17:42:26.275Z,39.33
2022-12-03T17:44:52.874Z,44.33
2022-12-03T17:47:19.444Z,38.23
2022-12-03T17:49:46.174Z,34.77
2022-12-03T17:52:12.774Z,36.57
2022-12-03T17:55:02.350Z,41.57
2022-12-03T17:57:25.843Z,41.37
2022-12-03T17:59:52.746Z,40.37
2022-12-03T18:02:19.488Z,59.37
2022-12-03T18:04:46.061Z,38.27
2022-12-03T18:07:12.576Z,36.77
2022-12-03T18:09:39.105Z,34.93
2022-12-03T18:12:05.820Z,35.50
2022-12-03T18:14:32.325Z,37.97
2022-12-03T18:16:58.836Z,37.40
2022-12-03T18:19:25.458Z,35.77
2022-12-03T18:21:52.053Z,39.63
2022-12-03T18:24:18.549Z,38.60
2022-12-03T18:26:45.150Z,37.63
2022-12-03T18:29:12.089Z,36.50
2022-12-03T18:31:38.676Z,36.00
2022-12-03T18:34:05.253Z,39.13
2022-12-03T18:36:34.090Z,38.90
2022-12-03T18:39:01.116Z,43.77
2022-12-03T18:41:27.837Z,40.33
2022-12-03T18:43:54.458Z,39.13
2022-12-03T18:49:08.967Z,37.37
2022-12-03T18:51:35.472Z,40.53
2022-12-03T18:54:01.970Z,37.73
2022-12-03T18:56:28.571Z,37.97
2022-12-03T18:58:55.067Z,36.03
2022-12-03T19:01:22.645Z,38.10
2022-12-03T19:03:49.807Z,36.07
2022-12-03T19:06:19.015Z,59.47
2022-12-03T19:08:46.238Z,53.83
2022-12-03T19:11:13.361Z,48.00
2022-12-03T19:13:40.882Z,42.13
2022-12-03T19:16:08.389Z,38.57
2022-12-03T19:18:35.215Z,37.87
2022-12-03T19:21:06.221Z,37.10
2022-12-03T19:23:33.268Z,36.93
2022-12-03T19:26:00.831Z,40.97
2022-12-03T19:28:27.928Z,49.00
2022-12-03T19:31:02.167Z,42.57
2022-12-03T19:33:29.503Z,39.50
2022-12-03T19:35:56.494Z,41.67
2022-12-03T19:38:24.220Z,42.87
2022-12-03T19:41:10.962Z,37.20
2022-12-03T19:43:38.000Z,44.80
2022-12-03T19:46:05.889Z,42.03
2022-12-03T19:48:33.180Z,42.67
2022-12-03T19:51:19.923Z,44.10
2022-12-03T19:53:47.736Z,47.53
2022-12-03T19:56:15.316Z,41.40
2022-12-03T19:58:42.438Z,43.43
2022-12-03T20:01:22.646Z,42.13
2022-12-03T20:03:50.669Z,39.43
2022-12-03T20:06:18.732Z,38.77
2022-12-03T20:08:45.823Z,39.43
2022-12-03T20:11:12.444Z,36.73
2022-12-03T20:13:39.098Z,36.80
2022-12-03T20:16:06.738Z,38.63
2022-12-03T20:18:33.313Z,37.37
2022-12-03T20:21:00.516Z,36.23
2022-12-03T20:23:27.418Z,37.43
2022-12-03T20:25:54.038Z,39.43
2022-12-03T20:28:20.603Z,39.00
2022-12-03T20:30:57.090Z,39.30
2022-12-03T20:33:24.003Z,47.27
2022-12-03T20:35:54.046Z,45.67
2022-12-03T20:38:21.427Z,44.33
2022-12-03T20:40:48.032Z,39.27
2022-12-03T20:43:14.861Z,39.50
2022-12-03T20:45:41.699Z,39.40
2022-12-03T20:48:08.532Z,39.53
2022-12-03T20:50:37.373Z,38.97
2022-12-03T20:53:23.613Z,38.60
2022-12-03T20:55:57.178Z,38.73
2022-12-03T20:58:23.859Z,36.07
2022-12-03T21:00:50.830Z,39.70
2022-12-03T21:03:17.334Z,39.17
2022-12-03T21:05:44.159Z,39.57
2022-12-03T21:08:11.410Z,40.07
2022-12-03T21:10:45.083Z,41.03
2022-12-03T21:13:12.540Z,40.03
2022-12-03T21:15:39.417Z,40.77
2022-12-03T21:18:06.118Z,41.87
2022-12-03T21:20:33.047Z,43.37
2022-12-03T21:22:59.830Z,43.33
2022-12-03T21:25:26.406Z,43.30
2022-12-03T21:27:55.008Z,44.97
2022-12-03T21:30:21.733Z,41.97
2022-12-03T21:32:48.387Z,43.33
2022-12-03T21:35:15.038Z,44.27
2022-12-03T21:37:41.784Z,43.57
2022-12-03T21:40:08.467Z,44.03
2022-12-03T21:42:37.228Z,45.80
2022-12-03T21:45:04.671Z,43.67
2022-12-03T21:47:36.866Z,44.70
2022-12-03T21:50:04.687Z,44.67
2022-12-03T21:52:32.061Z,43.87
2022-12-03T21:54:58.553Z,44.70
2022-12-03T21:57:25.033Z,42.97
2022-12-03T21:59:51.627Z,44.77
2022-12-03T22:02:18.308Z,44.37
2022-12-03T22:04:49.056Z,46.00
2022-12-03T22:07:15.541Z,45.47
2022-12-03T22:09:42.048Z,44.07
2022-12-03T22:12:08.563Z,45.80
2022-12-03T22:14:35.149Z,45.87
2022-12-03T22:17:01.684Z,44.27
2022-12-03T22:19:28.277Z,43.20
2022-12-03T22:21:54.753Z,44.90
2022-12-03T22:24:21.449Z,47.20
2022-12-03T22:26:48.020Z,46.47
2022-12-03T22:29:15.292Z,45.97
2022-12-03T22:31:41.817Z,44.80
2022-12-03T22:34:08.558Z,46.47
2022-12-03T22:36:35.140Z,45.43
2022-12-03T22:39:01.751Z,46.17
2022-12-03T22:41:28.440Z,46.77
2022-12-03T22:43:54.905Z,46.27
2022-12-03T22:46:21.508Z,48.00
2022-12-03T22:48:48.164Z,49.47
2022-12-03T22:51:16.383Z,48.33
2022-12-03T22:53:43.117Z,48.43
2022-12-03T22:56:10.011Z,46.53
2022-12-03T22:58:37.514Z,46.13
2022-12-03T23:01:04.112Z,46.97
2022-12-03T23:03:30.769Z,47.43
2022-12-03T23:05:57.372Z,47.30
2022-12-03T23:08:23.929Z,47.20
2022-12-03T23:10:51.384Z,46.80
2022-12-03T23:13:19.281Z,46.07
2022-12-03T23:15:46.879Z,47.90
2022-12-03T23:18:13.596Z,48.53
2022-12-03T23:20:44.584Z,48.43
2022-12-03T23:23:11.175Z,48.63
2022-12-03T23:25:37.736Z,48.33
2022-12-03T23:28:04.792Z,49.50
2022-12-03T23:30:31.332Z,50.27
2022-12-03T23:32:57.854Z,47.27
2022-12-03T23:35:24.353Z,46.40
2022-12-03T23:37:50.888Z,47.27
2022-12-03T23:40:17.462Z,48.17
2022-12-03T23:42:43.939Z,49.30
2022-12-03T23:45:10.651Z,46.17
2022-12-03T23:47:37.201Z,47.27
2022-12-03T23:50:04.047Z,49.23
2022-12-03T23:52:30.549Z,47.50
2022-12-03T23:54:57.075Z,48.93
2022-12-03T23:57:23.574Z,47.10
2022-12-03T23:59:50.085Z,49.83
